Hauptseite
METAR-TAF:

METAR-TAF

Flughäfen :

Flughafen Kairo

Kairo, Ägypten

Breite: 30-08N, Länge: 031-24E, Höhe: 64 m

Beobachtung

Neuester Wetterbericht von vor 38 Minuten, um 08:00 UTC
Wind 4 kt aus Nordwest
Temperatur 21°C
Luftfeuchtigkeit 46%
Luftdruck 1015 hPa
Sichtweite 10 km oder mehr
Leicht bewölkt in der Höhe von 2500 ft
Durchbrochene Bewölkung in der Höhe von 7000 ft

METAR: HECA 090800Z 32004KT 9999 FEW025 BKN070 21/09 Q1015 NOSIG

Zeit: 10:38 (08:38 UTC)

Prognose

Neuester Wetterbericht von vor 3 Stunden und 38 Minuten, um 05:00 UTC
Gültige Prognose vom 09 um 06 UTC bis 10 um 12 UTC
Wind 10 kt aus West/Nordwest
Sichtweite 10 km oder mehr
Aufgelockert bewölkt in der Höhe von 2500 ft
Zeitweise
vom 09 um 10 UTC bis 09 um 18 UTC
Wind 12 kt aus West, Böen bis zu 22 kt
Sichtweite: 4000 m
Sand

TAF: HECA 090500Z 0906/1012 29010KT 9999 SCT025 TEMPO 0910/0918 27012G22KT 4000 SA

Wetterbeobachtungen und Prognosen von mehr als 4000 Flughäfen (METAR und TAF Bericht).

Die verfügbaren Stationen werden durch gelbe und rote Markierungen auf der Karte dargestellt.

Führen Sie die Maus auf sie, um den Namen der Station zu sehen.

Darauf klicken, um die Beobachtung von Wetterbeobachtungen und Prognosen zu sehen.

Um die Karte zu ändern : klicken Sie auf den grünen Tasten mit einem schwarzen Kreuz Zum Vergrößern, auf den grünen Button mit einem Gedankenstrich zu verkleinern, oder auf die grünen Pfeile für benachbarte Karten.


METAR-TAF: